sensor_id;sensor_type;location;lat;lon;timestamp;temperature;humidity
9223;DHT22;7557;51.698;3.942;2022-12-07T00:00:54;6.90;99.90
9223;DHT22;7557;51.698;3.942;2022-12-07T00:03:22;6.80;99.90
9223;DHT22;7557;51.698;3.942;2022-12-07T00:05:49;6.80;99.90
9223;DHT22;7557;51.698;3.942;2022-12-07T00:08:18;6.80;99.90
9223;DHT22;7557;51.698;3.942;2022-12-07T00:10:46;6.80;99.90
9223;DHT22;7557;51.698;3.942;2022-12-07T00:13:13;6.80;99.90
9223;DHT22;7557;51.698;3.942;2022-12-07T00:15:41;6.80;99.90
9223;DHT22;7557;51.698;3.942;2022-12-07T00:18:09;6.90;99.90
9223;DHT22;7557;51.698;3.942;2022-12-07T00:20:41;6.80;99.90
9223;DHT22;7557;51.698;3.942;2022-12-07T00:23:09;6.80;99.90
9223;DHT22;7557;51.698;3.942;2022-12-07T00:25:38;6.80;99.90
9223;DHT22;7557;51.698;3.942;2022-12-07T00:28:05;6.80;99.90
9223;DHT22;7557;51.698;3.942;2022-12-07T00:30:35;6.90;99.90
9223;DHT22;7557;51.698;3.942;2022-12-07T00:33:03;7.00;99.90
9223;DHT22;7557;51.698;3.942;2022-12-07T00:35:31;7.00;99.90
9223;DHT22;7557;51.698;3.942;2022-12-07T00:37:58;7.10;99.90
9223;DHT22;7557;51.698;3.942;2022-12-07T00:40:26;7.10;99.90
9223;DHT22;7557;51.698;3.942;2022-12-07T00:43:13;7.10;99.90
9223;DHT22;7557;51.698;3.942;2022-12-07T00:45:58;7.10;99.90
9223;DHT22;7557;51.698;3.942;2022-12-07T00:48:26;7.10;99.90
9223;DHT22;7557;51.698;3.942;2022-12-07T00:50:53;7.10;99.90
9223;DHT22;7557;51.698;3.942;2022-12-07T00:53:41;7.10;99.90
9223;DHT22;7557;51.698;3.942;2022-12-07T00:56:11;7.10;99.90
9223;DHT22;7557;51.698;3.942;2022-12-07T00:58:41;7.10;99.90
9223;DHT22;7557;51.698;3.942;2022-12-07T01:01:09;7.10;99.90
9223;DHT22;7557;51.698;3.942;2022-12-07T01:03:38;7.10;99.90
9223;DHT22;7557;51.698;3.942;2022-12-07T01:06:06;7.20;99.90
9223;DHT22;7557;51.698;3.942;2022-12-07T01:08:33;7.20;99.90
9223;DHT22;7557;51.698;3.942;2022-12-07T01:11:02;7.20;99.90
9223;DHT22;7557;51.698;3.942;2022-12-07T01:13:30;7.10;99.90
9223;DHT22;7557;51.698;3.942;2022-12-07T01:16:04;7.00;99.90
9223;DHT22;7557;51.698;3.942;2022-12-07T01:18:34;6.90;99.90
9223;DHT22;7557;51.698;3.942;2022-12-07T01:21:04;6.90;99.90
9223;DHT22;7557;51.698;3.942;2022-12-07T01:23:33;6.90;99.90
9223;DHT22;7557;51.698;3.942;2022-12-07T01:26:02;7.00;99.90
9223;DHT22;7557;51.698;3.942;2022-12-07T01:28:42;7.10;99.90
9223;DHT22;7557;51.698;3.942;2022-12-07T01:31:12;7.10;99.90
9223;DHT22;7557;51.698;3.942;2022-12-07T01:33:41;7.10;99.90
9223;DHT22;7557;51.698;3.942;2022-12-07T01:36:14;7.20;99.90
9223;DHT22;7557;51.698;3.942;2022-12-07T01:38:42;7.20;99.90
9223;DHT22;7557;51.698;3.942;2022-12-07T01:41:11;7.20;99.90
9223;DHT22;7557;51.698;3.942;2022-12-07T01:44:15;7.30;99.90
9223;DHT22;7557;51.698;3.942;2022-12-07T01:46:46;7.30;99.90
9223;DHT22;7557;51.698;3.942;2022-12-07T01:49:20;7.30;99.90
9223;DHT22;7557;51.698;3.942;2022-12-07T01:51:49;7.30;99.90
9223;DHT22;7557;51.698;3.942;2022-12-07T01:54:20;7.20;99.90
9223;DHT22;7557;51.698;3.942;2022-12-07T01:56:51;7.10;99.90
9223;DHT22;7557;51.698;3.942;2022-12-07T01:59:21;7.00;99.90
9223;DHT22;7557;51.698;3.942;2022-12-07T02:01:54;7.00;99.90
9223;DHT22;7557;51.698;3.942;2022-12-07T02:04:23;6.80;99.90
9223;DHT22;7557;51.698;3.942;2022-12-07T02:06:50;6.80;99.90
9223;DHT22;7557;51.698;3.942;2022-12-07T02:09:18;6.80;99.90
9223;DHT22;7557;51.698;3.942;2022-12-07T02:11:45;6.80;99.90
9223;DHT22;7557;51.698;3.942;2022-12-07T02:14:13;6.80;99.90
9223;DHT22;7557;51.698;3.942;2022-12-07T02:16:51;6.80;99.90
9223;DHT22;7557;51.698;3.942;2022-12-07T02:19:50;6.80;99.90
9223;DHT22;7557;51.698;3.942;2022-12-07T02:22:43;6.90;99.90
9223;DHT22;7557;51.698;3.942;2022-12-07T02:25:19;6.90;99.90
9223;DHT22;7557;51.698;3.942;2022-12-07T02:27:52;7.00;99.90
9223;DHT22;7557;51.698;3.942;2022-12-07T02:30:28;7.00;99.90
9223;DHT22;7557;51.698;3.942;2022-12-07T02:33:00;6.90;99.90
9223;DHT22;7557;51.698;3.942;2022-12-07T02:35:33;6.90;99.90
9223;DHT22;7557;51.698;3.942;2022-12-07T02:38:04;6.90;99.90
9223;DHT22;7557;51.698;3.942;2022-12-07T02:40:39;6.90;99.90
9223;DHT22;7557;51.698;3.942;2022-12-07T02:43:12;6.90;99.90
9223;DHT22;7557;51.698;3.942;2022-12-07T02:45:44;7.00;99.90
9223;DHT22;7557;51.698;3.942;2022-12-07T02:48:16;6.90;99.90
9223;DHT22;7557;51.698;3.942;2022-12-07T02:50:47;6.90;99.90
9223;DHT22;7557;51.698;3.942;2022-12-07T02:53:35;6.90;99.90
9223;DHT22;7557;51.698;3.942;2022-12-07T02:56:07;7.00;99.90
9223;DHT22;7557;51.698;3.942;2022-12-07T02:58:47;6.90;99.90
9223;DHT22;7557;51.698;3.942;2022-12-07T03:01:25;7.00;99.90
9223;DHT22;7557;51.698;3.942;2022-12-07T03:04:02;6.90;99.90
9223;DHT22;7557;51.698;3.942;2022-12-07T03:06:43;6.90;99.90
9223;DHT22;7557;51.698;3.942;2022-12-07T03:09:16;6.90;99.90
9223;DHT22;7557;51.698;3.942;2022-12-07T03:11:49;6.90;99.90
9223;DHT22;7557;51.698;3.942;2022-12-07T03:14:21;6.90;99.90
9223;DHT22;7557;51.698;3.942;2022-12-07T03:16:57;7.00;99.90
9223;DHT22;7557;51.698;3.942;2022-12-07T03:19:27;7.00;99.90
9223;DHT22;7557;51.698;3.942;2022-12-07T03:21:57;7.00;99.90
9223;DHT22;7557;51.698;3.942;2022-12-07T03:24:29;7.00;99.90
9223;DHT22;7557;51.698;3.942;2022-12-07T03:27:03;7.00;99.90
9223;DHT22;7557;51.698;3.942;2022-12-07T03:29:35;7.00;99.90
9223;DHT22;7557;51.698;3.942;2022-12-07T03:32:08;7.00;99.90
9223;DHT22;7557;51.698;3.942;2022-12-07T03:34:41;7.00;99.90
9223;DHT22;7557;51.698;3.942;2022-12-07T03:37:14;7.00;99.90
9223;DHT22;7557;51.698;3.942;2022-12-07T03:39:52;6.90;99.90
9223;DHT22;7557;51.698;3.942;2022-12-07T03:42:21;6.90;99.90
9223;DHT22;7557;51.698;3.942;2022-12-07T03:44:49;6.90;99.90
9223;DHT22;7557;51.698;3.942;2022-12-07T03:47:28;6.90;99.90
9223;DHT22;7557;51.698;3.942;2022-12-07T03:50:00;7.00;99.90
9223;DHT22;7557;51.698;3.942;2022-12-07T03:52:33;7.00;99.90
9223;DHT22;7557;51.698;3.942;2022-12-07T03:55:08;7.00;99.90
9223;DHT22;7557;51.698;3.942;2022-12-07T03:57:38;7.00;99.90
9223;DHT22;7557;51.698;3.942;2022-12-07T04:00:08;7.00;99.90
9223;DHT22;7557;51.698;3.942;2022-12-07T04:02:39;7.00;99.90
9223;DHT22;7557;51.698;3.942;2022-12-07T04:05:07;7.10;99.90
9223;DHT22;7557;51.698;3.942;2022-12-07T04:07:35;7.10;99.90
9223;DHT22;7557;51.698;3.942;2022-12-07T04:10:04;7.10;99.90
9223;DHT22;7557;51.698;3.942;2022-12-07T04:12:32;7.20;99.90
9223;DHT22;7557;51.698;3.942;2022-12-07T04:14:59;7.20;99.90
9223;DHT22;7557;51.698;3.942;2022-12-07T04:17:27;7.20;99.90
9223;DHT22;7557;51.698;3.942;2022-12-07T04:19:56;7.20;99.90
9223;DHT22;7557;51.698;3.942;2022-12-07T04:22:24;7.20;99.90
9223;DHT22;7557;51.698;3.942;2022-12-07T04:24:51;7.20;99.90
9223;DHT22;7557;51.698;3.942;2022-12-07T04:27:18;7.20;99.90
9223;DHT22;7557;51.698;3.942;2022-12-07T04:29:46;7.20;99.90
9223;DHT22;7557;51.698;3.942;2022-12-07T04:32:13;7.20;99.90
9223;DHT22;7557;51.698;3.942;2022-12-07T04:34:41;7.20;99.90
9223;DHT22;7557;51.698;3.942;2022-12-07T04:37:10;7.20;99.90
9223;DHT22;7557;51.698;3.942;2022-12-07T04:39:38;7.20;99.90
9223;DHT22;7557;51.698;3.942;2022-12-07T04:42:05;7.10;99.90
9223;DHT22;7557;51.698;3.942;2022-12-07T04:44:32;7.00;99.90
9223;DHT22;7557;51.698;3.942;2022-12-07T04:47:00;6.90;99.90
9223;DHT22;7557;51.698;3.942;2022-12-07T04:49:27;6.90;99.90
9223;DHT22;7557;51.698;3.942;2022-12-07T04:51:55;6.90;99.90
9223;DHT22;7557;51.698;3.942;2022-12-07T04:54:24;6.90;99.90
9223;DHT22;7557;51.698;3.942;2022-12-07T04:56:52;6.80;99.90
9223;DHT22;7557;51.698;3.942;2022-12-07T04:59:20;6.80;99.90
9223;DHT22;7557;51.698;3.942;2022-12-07T05:01:47;6.80;99.90
9223;DHT22;7557;51.698;3.942;2022-12-07T05:04:15;6.80;99.90
9223;DHT22;7557;51.698;3.942;2022-12-07T05:06:43;6.70;99.90
9223;DHT22;7557;51.698;3.942;2022-12-07T05:09:11;6.70;99.90
9223;DHT22;7557;51.698;3.942;2022-12-07T05:11:40;6.70;99.90
9223;DHT22;7557;51.698;3.942;2022-12-07T05:14:12;6.60;99.90
9223;DHT22;7557;51.698;3.942;2022-12-07T05:16:40;6.60;99.90
9223;DHT22;7557;51.698;3.942;2022-12-07T05:19:08;6.50;99.90
9223;DHT22;7557;51.698;3.942;2022-12-07T05:21:36;6.40;99.90
9223;DHT22;7557;51.698;3.942;2022-12-07T05:24:04;6.40;99.90
9223;DHT22;7557;51.698;3.942;2022-12-07T05:26:32;6.40;99.90
9223;DHT22;7557;51.698;3.942;2022-12-07T05:29:01;6.40;99.90
9223;DHT22;7557;51.698;3.942;2022-12-07T05:31:29;6.40;99.90
9223;DHT22;7557;51.698;3.942;2022-12-07T05:34:00;6.30;99.90
9223;DHT22;7557;51.698;3.942;2022-12-07T05:36:27;6.20;99.90
9223;DHT22;7557;51.698;3.942;2022-12-07T05:38:57;6.30;99.90
9223;DHT22;7557;51.698;3.942;2022-12-07T05:41:25;6.30;99.90
9223;DHT22;7557;51.698;3.942;2022-12-07T05:44:11;6.30;99.90
9223;DHT22;7557;51.698;3.942;2022-12-07T05:46:38;6.40;99.90
9223;DHT22;7557;51.698;3.942;2022-12-07T05:49:06;6.50;99.90
9223;DHT22;7557;51.698;3.942;2022-12-07T05:51:33;6.60;99.90
9223;DHT22;7557;51.698;3.942;2022-12-07T05:54:01;6.60;99.90
9223;DHT22;7557;51.698;3.942;2022-12-07T05:56:28;6.70;99.90
9223;DHT22;7557;51.698;3.942;2022-12-07T05:58:56;6.70;99.90
9223;DHT22;7557;51.698;3.942;2022-12-07T06:01:42;6.70;99.90
9223;DHT22;7557;51.698;3.942;2022-12-07T06:04:09;6.70;99.90
9223;DHT22;7557;51.698;3.942;2022-12-07T06:06:37;6.70;99.90
9223;DHT22;7557;51.698;3.942;2022-12-07T06:09:04;6.70;99.90
9223;DHT22;7557;51.698;3.942;2022-12-07T06:11:32;6.70;99.90
9223;DHT22;7557;51.698;3.942;2022-12-07T06:14:17;6.70;99.90
9223;DHT22;7557;51.698;3.942;2022-12-07T06:16:46;6.80;99.90
9223;DHT22;7557;51.698;3.942;2022-12-07T06:19:14;6.80;99.90
9223;DHT22;7557;51.698;3.942;2022-12-07T06:21:41;6.80;99.90
9223;DHT22;7557;51.698;3.942;2022-12-07T06:24:10;6.80;99.90
9223;DHT22;7557;51.698;3.942;2022-12-07T06:26:38;6.70;99.90
9223;DHT22;7557;51.698;3.942;2022-12-07T06:29:08;6.70;99.90
9223;DHT22;7557;51.698;3.942;2022-12-07T06:31:37;6.60;99.90
9223;DHT22;7557;51.698;3.942;2022-12-07T06:34:10;6.60;99.90
9223;DHT22;7557;51.698;3.942;2022-12-07T06:36:39;6.50;99.90
9223;DHT22;7557;51.698;3.942;2022-12-07T06:39:06;6.50;99.90
9223;DHT22;7557;51.698;3.942;2022-12-07T06:41:35;6.50;99.90
9223;DHT22;7557;51.698;3.942;2022-12-07T06:44:03;6.50;99.90
9223;DHT22;7557;51.698;3.942;2022-12-07T06:46:31;6.50;99.90
9223;DHT22;7557;51.698;3.942;2022-12-07T06:48:58;6.50;99.90
9223;DHT22;7557;51.698;3.942;2022-12-07T06:51:27;6.50;99.90
9223;DHT22;7557;51.698;3.942;2022-12-07T06:53:55;6.50;99.90
9223;DHT22;7557;51.698;3.942;2022-12-07T06:56:23;6.40;99.90
9223;DHT22;7557;51.698;3.942;2022-12-07T06:58:50;6.40;99.90
9223;DHT22;7557;51.698;3.942;2022-12-07T07:01:18;6.40;99.90
9223;DHT22;7557;51.698;3.942;2022-12-07T07:03:46;6.30;99.90
9223;DHT22;7557;51.698;3.942;2022-12-07T07:06:14;6.30;99.90
9223;DHT22;7557;51.698;3.942;2022-12-07T07:08:43;6.30;99.90
9223;DHT22;7557;51.698;3.942;2022-12-07T07:11:10;6.40;99.90
9223;DHT22;7557;51.698;3.942;2022-12-07T07:13:38;6.40;99.90
9223;DHT22;7557;51.698;3.942;2022-12-07T07:16:06;6.40;99.90
9223;DHT22;7557;51.698;3.942;2022-12-07T07:18:34;6.40;99.90
9223;DHT22;7557;51.698;3.942;2022-12-07T07:21:02;6.40;99.90
9223;DHT22;7557;51.698;3.942;2022-12-07T07:23:32;6.50;99.90
9223;DHT22;7557;51.698;3.942;2022-12-07T07:26:02;6.50;99.90
9223;DHT22;7557;51.698;3.942;2022-12-07T07:28:29;6.50;99.90
9223;DHT22;7557;51.698;3.942;2022-12-07T07:30:57;6.50;99.90
9223;DHT22;7557;51.698;3.942;2022-12-07T07:33:25;6.50;99.90
9223;DHT22;7557;51.698;3.942;2022-12-07T07:35:53;6.50;99.90
9223;DHT22;7557;51.698;3.942;2022-12-07T07:38:20;6.50;99.90
9223;DHT22;7557;51.698;3.942;2022-12-07T07:40:48;6.40;99.90
9223;DHT22;7557;51.698;3.942;2022-12-07T07:43:17;6.40;99.90
9223;DHT22;7557;51.698;3.942;2022-12-07T07:45:44;6.40;99.90
9223;DHT22;7557;51.698;3.942;2022-12-07T07:48:12;6.40;99.90
9223;DHT22;7557;51.698;3.942;2022-12-07T07:50:39;6.50;99.90
9223;DHT22;7557;51.698;3.942;2022-12-07T07:53:07;6.50;99.90
9223;DHT22;7557;51.698;3.942;2022-12-07T07:55:35;6.60;99.90
9223;DHT22;7557;51.698;3.942;2022-12-07T07:58:02;6.60;99.90
9223;DHT22;7557;51.698;3.942;2022-12-07T08:00:31;6.70;99.90
9223;DHT22;7557;51.698;3.942;2022-12-07T08:02:59;6.70;99.90
9223;DHT22;7557;51.698;3.942;2022-12-07T08:05:26;6.70;99.90
9223;DHT22;7557;51.698;3.942;2022-12-07T08:07:54;6.80;99.90
9223;DHT22;7557;51.698;3.942;2022-12-07T08:10:22;6.80;99.90
9223;DHT22;7557;51.698;3.942;2022-12-07T08:12:49;6.80;99.90
9223;DHT22;7557;51.698;3.942;2022-12-07T08:15:37;6.80;99.90
9223;DHT22;7557;51.698;3.942;2022-12-07T08:18:05;6.80;99.90
9223;DHT22;7557;51.698;3.942;2022-12-07T08:20:33;6.80;99.90
9223;DHT22;7557;51.698;3.942;2022-12-07T08:23:01;6.70;99.90
9223;DHT22;7557;51.698;3.942;2022-12-07T08:25:29;6.60;99.90
9223;DHT22;7557;51.698;3.942;2022-12-07T08:27:57;6.60;99.90
9223;DHT22;7557;51.698;3.942;2022-12-07T08:30:24;6.60;99.90
9223;DHT22;7557;51.698;3.942;2022-12-07T08:32:53;6.60;99.90
9223;DHT22;7557;51.698;3.942;2022-12-07T08:35:21;6.70;99.90
9223;DHT22;7557;51.698;3.942;2022-12-07T08:37:48;6.70;99.90
9223;DHT22;7557;51.698;3.942;2022-12-07T08:40:16;6.80;99.90
9223;DHT22;7557;51.698;3.942;2022-12-07T08:42:48;6.80;99.90
9223;DHT22;7557;51.698;3.942;2022-12-07T08:45:17;6.70;99.90
9223;DHT22;7557;51.698;3.942;2022-12-07T08:47:47;6.60;99.90
9223;DHT22;7557;51.698;3.942;2022-12-07T08:50:19;6.60;99.90
9223;DHT22;7557;51.698;3.942;2022-12-07T08:52:49;6.70;99.90
9223;DHT22;7557;51.698;3.942;2022-12-07T08:55:19;6.70;99.90
9223;DHT22;7557;51.698;3.942;2022-12-07T08:57:47;6.80;99.90
9223;DHT22;7557;51.698;3.942;2022-12-07T09:00:15;6.90;99.90
9223;DHT22;7557;51.698;3.942;2022-12-07T09:02:44;6.90;99.90
9223;DHT22;7557;51.698;3.942;2022-12-07T09:05:12;6.90;99.90
9223;DHT22;7557;51.698;3.942;2022-12-07T09:07:43;6.90;99.90
9223;DHT22;7557;51.698;3.942;2022-12-07T09:10:11;6.90;99.90
9223;DHT22;7557;51.698;3.942;2022-12-07T09:12:40;6.90;99.90
9223;DHT22;7557;51.698;3.942;2022-12-07T09:15:08;6.90;99.90
9223;DHT22;7557;51.698;3.942;2022-12-07T09:17:36;6.90;99.90
9223;DHT22;7557;51.698;3.942;2022-12-07T09:20:04;6.90;99.90
9223;DHT22;7557;51.698;3.942;2022-12-07T09:22:32;6.90;99.90
9223;DHT22;7557;51.698;3.942;2022-12-07T09:25:02;7.00;99.90
9223;DHT22;7557;51.698;3.942;2022-12-07T09:27:30;7.10;99.90
9223;DHT22;7557;51.698;3.942;2022-12-07T09:29:58;7.10;99.90
9223;DHT22;7557;51.698;3.942;2022-12-07T09:32:26;7.20;99.90
9223;DHT22;7557;51.698;3.942;2022-12-07T09:34:53;7.20;99.90
9223;DHT22;7557;51.698;3.942;2022-12-07T09:37:21;7.20;99.90
9223;DHT22;7557;51.698;3.942;2022-12-07T09:39:48;7.30;99.90
9223;DHT22;7557;51.698;3.942;2022-12-07T09:42:32;7.30;99.90
9223;DHT22;7557;51.698;3.942;2022-12-07T09:45:01;7.40;99.90
9223;DHT22;7557;51.698;3.942;2022-12-07T09:47:30;7.50;99.90
9223;DHT22;7557;51.698;3.942;2022-12-07T09:50:03;7.60;99.90
9223;DHT22;7557;51.698;3.942;2022-12-07T09:52:31;7.60;99.90
9223;DHT22;7557;51.698;3.942;2022-12-07T09:55:00;7.60;99.90
9223;DHT22;7557;51.698;3.942;2022-12-07T09:57:31;7.60;99.90
9223;DHT22;7557;51.698;3.942;2022-12-07T10:00:03;7.60;99.90
9223;DHT22;7557;51.698;3.942;2022-12-07T10:02:36;7.40;99.90
9223;DHT22;7557;51.698;3.942;2022-12-07T10:05:06;7.20;99.90
9223;DHT22;7557;51.698;3.942;2022-12-07T10:07:34;7.00;99.90
9223;DHT22;7557;51.698;3.942;2022-12-07T10:10:04;6.90;99.90
9223;DHT22;7557;51.698;3.942;2022-12-07T10:12:55;6.90;99.90
9223;DHT22;7557;51.698;3.942;2022-12-07T10:15:23;7.00;99.90
9223;DHT22;7557;51.698;3.942;2022-12-07T10:17:51;7.10;99.90
9223;DHT22;7557;51.698;3.942;2022-12-07T10:20:23;7.20;99.90
9223;DHT22;7557;51.698;3.942;2022-12-07T10:23:02;7.30;99.90
9223;DHT22;7557;51.698;3.942;2022-12-07T10:25:32;7.40;99.90
9223;DHT22;7557;51.698;3.942;2022-12-07T10:28:27;7.50;99.90
9223;DHT22;7557;51.698;3.942;2022-12-07T10:31:02;7.50;99.90
9223;DHT22;7557;51.698;3.942;2022-12-07T10:33:33;7.60;99.90
9223;DHT22;7557;51.698;3.942;2022-12-07T10:36:16;7.60;99.90
9223;DHT22;7557;51.698;3.942;2022-12-07T10:38:46;7.70;99.90
9223;DHT22;7557;51.698;3.942;2022-12-07T10:41:13;7.70;99.90
9223;DHT22;7557;51.698;3.942;2022-12-07T10:43:54;7.80;99.90
9223;DHT22;7557;51.698;3.942;2022-12-07T10:46:46;7.80;99.90
9223;DHT22;7557;51.698;3.942;2022-12-07T10:49:48;8.00;99.90
9223;DHT22;7557;51.698;3.942;2022-12-07T10:52:41;8.00;99.90
9223;DHT22;7557;51.698;3.942;2022-12-07T10:55:18;8.00;99.90
9223;DHT22;7557;51.698;3.942;2022-12-07T10:57:58;8.10;99.90
9223;DHT22;7557;51.698;3.942;2022-12-07T11:00:33;8.20;99.90
9223;DHT22;7557;51.698;3.942;2022-12-07T11:03:23;8.20;99.90
9223;DHT22;7557;51.698;3.942;2022-12-07T11:05:56;8.30;99.90
9223;DHT22;7557;51.698;3.942;2022-12-07T11:08:39;8.30;99.90
9223;DHT22;7557;51.698;3.942;2022-12-07T11:11:13;8.50;99.90
9223;DHT22;7557;51.698;3.942;2022-12-07T11:13:47;8.70;99.90
9223;DHT22;7557;51.698;3.942;2022-12-07T11:16:28;8.90;99.90
9223;DHT22;7557;51.698;3.942;2022-12-07T11:19:15;9.10;99.90
9223;DHT22;7557;51.698;3.942;2022-12-07T11:21:48;9.00;99.90
9223;DHT22;7557;51.698;3.942;2022-12-07T11:24:18;8.80;99.90
9223;DHT22;7557;51.698;3.942;2022-12-07T11:26:59;8.60;99.90
9223;DHT22;7557;51.698;3.942;2022-12-07T11:29:50;8.40;99.90
9223;DHT22;7557;51.698;3.942;2022-12-07T11:32:36;8.20;99.90
9223;DHT22;7557;51.698;3.942;2022-12-07T11:35:11;8.10;99.90
9223;DHT22;7557;51.698;3.942;2022-12-07T11:37:44;8.00;99.90
9223;DHT22;7557;51.698;3.942;2022-12-07T11:40:19;8.10;99.90
9223;DHT22;7557;51.698;3.942;2022-12-07T11:42:52;8.10;99.90
9223;DHT22;7557;51.698;3.942;2022-12-07T11:45:24;8.20;99.90
9223;DHT22;7557;51.698;3.942;2022-12-07T11:47:59;8.20;99.90
9223;DHT22;7557;51.698;3.942;2022-12-07T11:50:34;8.30;99.90
9223;DHT22;7557;51.698;3.942;2022-12-07T11:53:05;8.30;99.90
9223;DHT22;7557;51.698;3.942;2022-12-07T11:55:43;8.30;99.90
9223;DHT22;7557;51.698;3.942;2022-12-07T11:58:29;8.30;99.90
9223;DHT22;7557;51.698;3.942;2022-12-07T12:01:11;8.30;99.90
9223;DHT22;7557;51.698;3.942;2022-12-07T12:03:45;8.40;99.90
9223;DHT22;7557;51.698;3.942;2022-12-07T12:06:13;8.40;99.90
9223;DHT22;7557;51.698;3.942;2022-12-07T12:08:44;8.40;99.90
9223;DHT22;7557;51.698;3.942;2022-12-07T12:11:23;8.40;99.90
9223;DHT22;7557;51.698;3.942;2022-12-07T12:14:24;8.50;99.90
9223;DHT22;7557;51.698;3.942;2022-12-07T12:17:11;8.50;99.90
9223;DHT22;7557;51.698;3.942;2022-12-07T12:19:54;8.50;99.90
9223;DHT22;7557;51.698;3.942;2022-12-07T12:22:32;8.50;99.90
9223;DHT22;7557;51.698;3.942;2022-12-07T12:25:04;8.60;99.90
9223;DHT22;7557;51.698;3.942;2022-12-07T12:27:34;8.60;99.90
9223;DHT22;7557;51.698;3.942;2022-12-07T12:30:06;8.60;99.90
9223;DHT22;7557;51.698;3.942;2022-12-07T12:32:39;8.70;99.90
9223;DHT22;7557;51.698;3.942;2022-12-07T12:35:38;8.70;99.90
9223;DHT22;7557;51.698;3.942;2022-12-07T12:38:31;8.60;99.90
9223;DHT22;7557;51.698;3.942;2022-12-07T12:41:01;8.40;99.90
9223;DHT22;7557;51.698;3.942;2022-12-07T12:43:44;8.30;99.90
9223;DHT22;7557;51.698;3.942;2022-12-07T12:46:52;8.00;99.90
9223;DHT22;7557;51.698;3.942;2022-12-07T12:58:42;7.60;99.90
9223;DHT22;7557;51.698;3.942;2022-12-07T13:01:44;7.60;99.90
9223;DHT22;7557;51.698;3.942;2022-12-07T13:04:25;7.60;99.90
9223;DHT22;7557;51.698;3.942;2022-12-07T13:06:54;7.60;99.90
9223;DHT22;7557;51.698;3.942;2022-12-07T13:09:24;7.60;99.90
9223;DHT22;7557;51.698;3.942;2022-12-07T13:11:59;7.70;99.90
9223;DHT22;7557;51.698;3.942;2022-12-07T13:14:56;7.60;99.90
9223;DHT22;7557;51.698;3.942;2022-12-07T13:18:01;7.60;99.90
9223;DHT22;7557;51.698;3.942;2022-12-07T13:20:46;7.70;99.90
9223;DHT22;7557;51.698;3.942;2022-12-07T13:23:18;7.70;99.90
9223;DHT22;7557;51.698;3.942;2022-12-07T13:26:11;7.70;99.90
9223;DHT22;7557;51.698;3.942;2022-12-07T13:28:41;7.60;99.90
9223;DHT22;7557;51.698;3.942;2022-12-07T13:34:30;7.50;99.90
9223;DHT22;7557;51.698;3.942;2022-12-07T13:36:59;7.50;99.90
9223;DHT22;7557;51.698;3.942;2022-12-07T13:39:27;7.50;99.90
9223;DHT22;7557;51.698;3.942;2022-12-07T13:41:56;7.50;99.90
9223;DHT22;7557;51.698;3.942;2022-12-07T13:44:26;7.50;99.90
9223;DHT22;7557;51.698;3.942;2022-12-07T13:47:13;7.50;99.90
9223;DHT22;7557;51.698;3.942;2022-12-07T13:49:47;7.50;99.90
9223;DHT22;7557;51.698;3.942;2022-12-07T13:52:17;7.50;99.90
9223;DHT22;7557;51.698;3.942;2022-12-07T13:54:46;7.60;99.90
9223;DHT22;7557;51.698;3.942;2022-12-07T13:57:15;7.60;99.90
9223;DHT22;7557;51.698;3.942;2022-12-07T13:59:43;7.70;99.90
9223;DHT22;7557;51.698;3.942;2022-12-07T14:02:20;7.80;99.90
9223;DHT22;7557;51.698;3.942;2022-12-07T14:04:49;7.80;99.90
9223;DHT22;7557;51.698;3.942;2022-12-07T14:07:23;7.80;99.90
9223;DHT22;7557;51.698;3.942;2022-12-07T14:09:58;7.70;99.90
9223;DHT22;7557;51.698;3.942;2022-12-07T14:12:27;7.60;99.90
9223;DHT22;7557;51.698;3.942;2022-12-07T14:14:56;7.50;99.90
9223;DHT22;7557;51.698;3.942;2022-12-07T14:17:29;7.50;99.90
9223;DHT22;7557;51.698;3.942;2022-12-07T14:19:57;7.40;99.90
9223;DHT22;7557;51.698;3.942;2022-12-07T14:22:28;7.40;99.90
9223;DHT22;7557;51.698;3.942;2022-12-07T14:25:18;7.30;99.90
9223;DHT22;7557;51.698;3.942;2022-12-07T14:28:03;7.30;99.90
9223;DHT22;7557;51.698;3.942;2022-12-07T14:30:32;7.20;99.90
9223;DHT22;7557;51.698;3.942;2022-12-07T14:33:07;7.20;99.90
9223;DHT22;7557;51.698;3.942;2022-12-07T14:35:37;7.20;99.90
9223;DHT22;7557;51.698;3.942;2022-12-07T14:38:07;7.20;99.90
9223;DHT22;7557;51.698;3.942;2022-12-07T14:40:34;7.20;99.90
9223;DHT22;7557;51.698;3.942;2022-12-07T14:43:04;7.20;99.90
9223;DHT22;7557;51.698;3.942;2022-12-07T14:45:32;7.30;99.90
9223;DHT22;7557;51.698;3.942;2022-12-07T14:48:00;7.30;99.90
9223;DHT22;7557;51.698;3.942;2022-12-07T14:50:29;7.40;99.90
9223;DHT22;7557;51.698;3.942;2022-12-07T14:53:00;7.40;99.90
9223;DHT22;7557;51.698;3.942;2022-12-07T14:55:31;7.50;99.90
9223;DHT22;7557;51.698;3.942;2022-12-07T14:57:59;7.50;99.90
9223;DHT22;7557;51.698;3.942;2022-12-07T15:00:28;7.50;99.90
9223;DHT22;7557;51.698;3.942;2022-12-07T15:02:56;7.50;99.90
9223;DHT22;7557;51.698;3.942;2022-12-07T15:05:23;7.50;99.90
9223;DHT22;7557;51.698;3.942;2022-12-07T15:07:52;7.50;99.90
9223;DHT22;7557;51.698;3.942;2022-12-07T15:10:22;7.40;99.90
9223;DHT22;7557;51.698;3.942;2022-12-07T15:12:49;7.40;99.90
9223;DHT22;7557;51.698;3.942;2022-12-07T15:15:17;7.30;99.90
9223;DHT22;7557;51.698;3.942;2022-12-07T15:17:44;7.30;99.90
9223;DHT22;7557;51.698;3.942;2022-12-07T15:20:14;7.30;99.90
9223;DHT22;7557;51.698;3.942;2022-12-07T15:22:42;7.30;99.90
9223;DHT22;7557;51.698;3.942;2022-12-07T15:25:14;7.30;99.90
9223;DHT22;7557;51.698;3.942;2022-12-07T15:27:42;7.30;99.90
9223;DHT22;7557;51.698;3.942;2022-12-07T15:30:10;7.30;99.90
9223;DHT22;7557;51.698;3.942;2022-12-07T15:32:37;7.10;99.90
9223;DHT22;7557;51.698;3.942;2022-12-07T15:35:07;6.90;99.90
9223;DHT22;7557;51.698;3.942;2022-12-07T15:37:35;6.70;99.90
9223;DHT22;7557;51.698;3.942;2022-12-07T15:40:03;6.60;99.90
9223;DHT22;7557;51.698;3.942;2022-12-07T15:42:32;6.50;99.90
9223;DHT22;7557;51.698;3.942;2022-12-07T15:45:00;6.50;99.90
9223;DHT22;7557;51.698;3.942;2022-12-07T15:47:33;6.60;99.90
9223;DHT22;7557;51.698;3.942;2022-12-07T15:50:02;6.60;99.90
9223;DHT22;7557;51.698;3.942;2022-12-07T15:52:30;6.70;99.90
9223;DHT22;7557;51.698;3.942;2022-12-07T15:54:57;6.80;99.90
9223;DHT22;7557;51.698;3.942;2022-12-07T15:57:25;6.90;99.90
9223;DHT22;7557;51.698;3.942;2022-12-07T15:59:54;7.00;99.90
9223;DHT22;7557;51.698;3.942;2022-12-07T16:02:22;7.00;99.90
9223;DHT22;7557;51.698;3.942;2022-12-07T16:04:49;7.00;99.90
9223;DHT22;7557;51.698;3.942;2022-12-07T16:07:17;7.00;99.90
9223;DHT22;7557;51.698;3.942;2022-12-07T16:09:45;7.00;99.90
9223;DHT22;7557;51.698;3.942;2022-12-07T16:12:13;7.00;99.90
9223;DHT22;7557;51.698;3.942;2022-12-07T16:14:41;7.00;99.90
9223;DHT22;7557;51.698;3.942;2022-12-07T16:17:10;6.80;99.90
9223;DHT22;7557;51.698;3.942;2022-12-07T16:19:38;6.70;99.90
9223;DHT22;7557;51.698;3.942;2022-12-07T16:22:06;6.70;99.90
9223;DHT22;7557;51.698;3.942;2022-12-07T16:24:34;6.70;99.90
9223;DHT22;7557;51.698;3.942;2022-12-07T16:27:01;6.80;99.90
9223;DHT22;7557;51.698;3.942;2022-12-07T16:29:28;6.90;99.90
9223;DHT22;7557;51.698;3.942;2022-12-07T16:31:56;7.00;99.90
9223;DHT22;7557;51.698;3.942;2022-12-07T16:34:25;7.10;99.90
9223;DHT22;7557;51.698;3.942;2022-12-07T16:36:52;7.20;99.90
9223;DHT22;7557;51.698;3.942;2022-12-07T16:39:20;7.20;99.90
9223;DHT22;7557;51.698;3.942;2022-12-07T16:41:47;7.20;99.90
9223;DHT22;7557;51.698;3.942;2022-12-07T16:44:15;7.30;99.90
9223;DHT22;7557;51.698;3.942;2022-12-07T16:46:42;7.30;99.90
9223;DHT22;7557;51.698;3.942;2022-12-07T16:49:12;7.30;99.90
9223;DHT22;7557;51.698;3.942;2022-12-07T16:51:41;7.30;99.90
9223;DHT22;7557;51.698;3.942;2022-12-07T16:54:10;7.30;99.90
9223;DHT22;7557;51.698;3.942;2022-12-07T16:56:38;7.30;99.90
9223;DHT22;7557;51.698;3.942;2022-12-07T16:59:06;7.20;99.90